sensor_id;sensor_type;location;lat;lon;timestamp;P1;durP1;ratioP1;P2;durP2;ratioP2
32393;SDS011;18853;45.426;9.206;2024-02-28T00:01:59;10.73;;;8.25;;
32393;SDS011;18853;45.426;9.206;2024-02-28T00:04:25;10.82;;;8.43;;
32393;SDS011;18853;45.426;9.206;2024-02-28T00:06:51;10.80;;;8.88;;
32393;SDS011;18853;45.426;9.206;2024-02-28T00:09:16;10.85;;;8.00;;
32393;SDS011;18853;45.426;9.206;2024-02-28T00:11:45;11.60;;;8.57;;
32393;SDS011;18853;45.426;9.206;2024-02-28T00:14:11;11.93;;;8.27;;
32393;SDS011;18853;45.426;9.206;2024-02-28T00:16:41;13.10;;;9.60;;
32393;SDS011;18853;45.426;9.206;2024-02-28T00:19:07;10.27;;;8.60;;
32393;SDS011;18853;45.426;9.206;2024-02-28T00:21:33;10.98;;;8.55;;
32393;SDS011;18853;45.426;9.206;2024-02-28T00:23:59;10.75;;;8.82;;
32393;SDS011;18853;45.426;9.206;2024-02-28T00:26:25;12.00;;;8.60;;
32393;SDS011;18853;45.426;9.206;2024-02-28T00:28:50;10.77;;;9.20;;
32393;SDS011;18853;45.426;9.206;2024-02-28T00:31:16;11.13;;;8.70;;
32393;SDS011;18853;45.426;9.206;2024-02-28T00:33:41;11.18;;;9.30;;
32393;SDS011;18853;45.426;9.206;2024-02-28T00:36:07;10.27;;;8.85;;
32393;SDS011;18853;45.426;9.206;2024-02-28T00:38:32;12.13;;;9.35;;
32393;SDS011;18853;45.426;9.206;2024-02-28T00:41:00;12.48;;;8.23;;
32393;SDS011;18853;45.426;9.206;2024-02-28T00:43:26;10.90;;;9.27;;
32393;SDS011;18853;45.426;9.206;2024-02-28T00:45:51;11.50;;;9.27;;
32393;SDS011;18853;45.426;9.206;2024-02-28T00:48:17;10.23;;;9.20;;
32393;SDS011;18853;45.426;9.206;2024-02-28T00:50:43;12.70;;;9.13;;
32393;SDS011;18853;45.426;9.206;2024-02-28T00:53:08;13.98;;;10.30;;
32393;SDS011;18853;45.426;9.206;2024-02-28T00:55:34;12.35;;;9.82;;
32393;SDS011;18853;45.426;9.206;2024-02-28T00:57:59;12.43;;;9.57;;
32393;SDS011;18853;45.426;9.206;2024-02-28T01:00:25;12.27;;;9.50;;
32393;SDS011;18853;45.426;9.206;2024-02-28T01:02:50;11.68;;;9.65;;
32393;SDS011;18853;45.426;9.206;2024-02-28T01:05:16;11.25;;;10.05;;
32393;SDS011;18853;45.426;9.206;2024-02-28T01:07:41;12.93;;;10.32;;
32393;SDS011;18853;45.426;9.206;2024-02-28T01:10:07;12.13;;;9.20;;
32393;SDS011;18853;45.426;9.206;2024-02-28T01:12:32;11.23;;;9.80;;
32393;SDS011;18853;45.426;9.206;2024-02-28T01:14:58;12.52;;;10.07;;
32393;SDS011;18853;45.426;9.206;2024-02-28T01:17:24;11.95;;;9.60;;
32393;SDS011;18853;45.426;9.206;2024-02-28T01:19:50;11.40;;;9.57;;
32393;SDS011;18853;45.426;9.206;2024-02-28T01:22:15;15.40;;;9.27;;
32393;SDS011;18853;45.426;9.206;2024-02-28T01:24:41;10.80;;;8.95;;
32393;SDS011;18853;45.426;9.206;2024-02-28T01:27:06;8.90;;;8.00;;
32393;SDS011;18853;45.426;9.206;2024-02-28T01:29:32;10.90;;;8.57;;
32393;SDS011;18853;45.426;9.206;2024-02-28T01:31:57;12.77;;;8.77;;
32393;SDS011;18853;45.426;9.206;2024-02-28T01:34:23;11.23;;;8.73;;
32393;SDS011;18853;45.426;9.206;2024-02-28T01:36:48;10.93;;;8.50;;
32393;SDS011;18853;45.426;9.206;2024-02-28T01:39:14;10.60;;;8.27;;
32393;SDS011;18853;45.426;9.206;2024-02-28T01:41:39;10.55;;;8.35;;
32393;SDS011;18853;45.426;9.206;2024-02-28T01:44:05;10.07;;;7.93;;
32393;SDS011;18853;45.426;9.206;2024-02-28T01:46:31;11.75;;;8.25;;
32393;SDS011;18853;45.426;9.206;2024-02-28T01:48:57;9.90;;;7.65;;
32393;SDS011;18853;45.426;9.206;2024-02-28T01:51:24;10.05;;;8.02;;
32393;SDS011;18853;45.426;9.206;2024-02-28T01:53:52;11.90;;;7.40;;
32393;SDS011;18853;45.426;9.206;2024-02-28T01:56:19;10.98;;;7.50;;
32393;SDS011;18853;45.426;9.206;2024-02-28T01:58:46;9.88;;;7.43;;
32393;SDS011;18853;45.426;9.206;2024-02-28T02:01:13;11.23;;;8.30;;
32393;SDS011;18853;45.426;9.206;2024-02-28T02:03:39;9.32;;;8.25;;
32393;SDS011;18853;45.426;9.206;2024-02-28T02:06:05;8.90;;;7.95;;
32393;SDS011;18853;45.426;9.206;2024-02-28T02:08:31;9.63;;;8.25;;
32393;SDS011;18853;45.426;9.206;2024-02-28T02:10:58;9.65;;;7.93;;
32393;SDS011;18853;45.426;9.206;2024-02-28T02:13:24;9.43;;;7.80;;
32393;SDS011;18853;45.426;9.206;2024-02-28T02:15:50;10.15;;;8.27;;
32393;SDS011;18853;45.426;9.206;2024-02-28T02:18:15;11.10;;;8.73;;
32393;SDS011;18853;45.426;9.206;2024-02-28T02:20:42;9.73;;;8.48;;
32393;SDS011;18853;45.426;9.206;2024-02-28T02:23:09;10.73;;;8.15;;
32393;SDS011;18853;45.426;9.206;2024-02-28T02:25:46;10.60;;;7.68;;
32393;SDS011;18853;45.426;9.206;2024-02-28T02:28:12;9.80;;;7.53;;
32393;SDS011;18853;45.426;9.206;2024-02-28T02:30:39;8.85;;;7.63;;
32393;SDS011;18853;45.426;9.206;2024-02-28T02:33:05;11.52;;;8.10;;
32393;SDS011;18853;45.426;9.206;2024-02-28T02:35:31;8.82;;;7.93;;
32393;SDS011;18853;45.426;9.206;2024-02-28T02:37:57;10.38;;;7.85;;
32393;SDS011;18853;45.426;9.206;2024-02-28T02:40:22;8.85;;;7.75;;
32393;SDS011;18853;45.426;9.206;2024-02-28T02:42:48;8.45;;;7.53;;
32393;SDS011;18853;45.426;9.206;2024-02-28T02:45:14;9.38;;;7.53;;
32393;SDS011;18853;45.426;9.206;2024-02-28T02:47:39;9.07;;;7.45;;
32393;SDS011;18853;45.426;9.206;2024-02-28T02:50:05;9.27;;;7.80;;
32393;SDS011;18853;45.426;9.206;2024-02-28T02:52:31;10.52;;;8.32;;
32393;SDS011;18853;45.426;9.206;2024-02-28T02:54:57;9.38;;;7.43;;
32393;SDS011;18853;45.426;9.206;2024-02-28T02:57:22;9.75;;;7.93;;
32393;SDS011;18853;45.426;9.206;2024-02-28T02:59:48;9.95;;;8.30;;
32393;SDS011;18853;45.426;9.206;2024-02-28T03:02:13;10.57;;;8.52;;
32393;SDS011;18853;45.426;9.206;2024-02-28T03:04:39;10.02;;;7.47;;
32393;SDS011;18853;45.426;9.206;2024-02-28T03:07:04;11.10;;;8.18;;
32393;SDS011;18853;45.426;9.206;2024-02-28T03:09:30;12.05;;;8.10;;
32393;SDS011;18853;45.426;9.206;2024-02-28T03:11:56;10.82;;;8.02;;
32393;SDS011;18853;45.426;9.206;2024-02-28T03:14:21;11.40;;;8.10;;
32393;SDS011;18853;45.426;9.206;2024-02-28T03:16:47;9.52;;;7.75;;
32393;SDS011;18853;45.426;9.206;2024-02-28T03:19:13;9.23;;;7.78;;
32393;SDS011;18853;45.426;9.206;2024-02-28T03:21:40;14.90;;;7.93;;
32393;SDS011;18853;45.426;9.206;2024-02-28T03:24:06;11.55;;;7.82;;
32393;SDS011;18853;45.426;9.206;2024-02-28T03:26:32;11.25;;;7.90;;
32393;SDS011;18853;45.426;9.206;2024-02-28T03:28:57;10.57;;;7.75;;
32393;SDS011;18853;45.426;9.206;2024-02-28T03:31:24;10.70;;;7.82;;
32393;SDS011;18853;45.426;9.206;2024-02-28T03:33:49;9.57;;;7.60;;
32393;SDS011;18853;45.426;9.206;2024-02-28T03:36:15;11.13;;;7.50;;
32393;SDS011;18853;45.426;9.206;2024-02-28T03:38:41;11.93;;;7.63;;
32393;SDS011;18853;45.426;9.206;2024-02-28T03:41:06;8.10;;;7.18;;
32393;SDS011;18853;45.426;9.206;2024-02-28T03:43:32;10.43;;;7.20;;
32393;SDS011;18853;45.426;9.206;2024-02-28T03:45:58;8.75;;;7.13;;
32393;SDS011;18853;45.426;9.206;2024-02-28T03:48:23;8.38;;;7.15;;
32393;SDS011;18853;45.426;9.206;2024-02-28T03:50:49;9.98;;;7.47;;
32393;SDS011;18853;45.426;9.206;2024-02-28T03:53:15;10.32;;;7.60;;
32393;SDS011;18853;45.426;9.206;2024-02-28T03:55:41;7.50;;;6.43;;
32393;SDS011;18853;45.426;9.206;2024-02-28T03:58:10;8.57;;;7.05;;
32393;SDS011;18853;45.426;9.206;2024-02-28T04:00:36;9.40;;;7.10;;
32393;SDS011;18853;45.426;9.206;2024-02-28T04:03:02;7.90;;;6.32;;
32393;SDS011;18853;45.426;9.206;2024-02-28T04:05:28;7.13;;;6.15;;
32393;SDS011;18853;45.426;9.206;2024-02-28T04:07:54;8.20;;;6.43;;
32393;SDS011;18853;45.426;9.206;2024-02-28T04:10:20;7.50;;;5.57;;
32393;SDS011;18853;45.426;9.206;2024-02-28T04:12:47;8.77;;;5.40;;
32393;SDS011;18853;45.426;9.206;2024-02-28T04:15:13;8.20;;;5.53;;
32393;SDS011;18853;45.426;9.206;2024-02-28T04:17:39;7.75;;;6.40;;
32393;SDS011;18853;45.426;9.206;2024-02-28T04:20:09;7.18;;;5.55;;
32393;SDS011;18853;45.426;9.206;2024-02-28T04:22:35;7.75;;;5.47;;
32393;SDS011;18853;45.426;9.206;2024-02-28T04:25:01;7.13;;;4.95;;
32393;SDS011;18853;45.426;9.206;2024-02-28T04:27:26;6.75;;;5.22;;
32393;SDS011;18853;45.426;9.206;2024-02-28T04:29:52;7.28;;;4.90;;
32393;SDS011;18853;45.426;9.206;2024-02-28T04:32:18;7.35;;;5.18;;
32393;SDS011;18853;45.426;9.206;2024-02-28T04:34:43;8.15;;;5.50;;
32393;SDS011;18853;45.426;9.206;2024-02-28T04:37:09;7.18;;;4.95;;
32393;SDS011;18853;45.426;9.206;2024-02-28T04:39:36;6.60;;;4.78;;
32393;SDS011;18853;45.426;9.206;2024-02-28T04:42:01;7.10;;;5.38;;
32393;SDS011;18853;45.426;9.206;2024-02-28T04:44:27;5.97;;;4.53;;
32393;SDS011;18853;45.426;9.206;2024-02-28T04:46:52;5.90;;;4.53;;
32393;SDS011;18853;45.426;9.206;2024-02-28T04:49:18;6.40;;;4.82;;
32393;SDS011;18853;45.426;9.206;2024-02-28T04:51:43;6.28;;;4.65;;
32393;SDS011;18853;45.426;9.206;2024-02-28T04:54:09;6.40;;;4.72;;
32393;SDS011;18853;45.426;9.206;2024-02-28T04:56:39;5.95;;;4.72;;
32393;SDS011;18853;45.426;9.206;2024-02-28T04:59:08;8.13;;;4.68;;
32393;SDS011;18853;45.426;9.206;2024-02-28T05:01:35;8.25;;;4.70;;
32393;SDS011;18853;45.426;9.206;2024-02-28T05:04:04;5.72;;;4.50;;
32393;SDS011;18853;45.426;9.206;2024-02-28T05:06:32;7.05;;;4.18;;
32393;SDS011;18853;45.426;9.206;2024-02-28T05:08:58;6.10;;;4.25;;
32393;SDS011;18853;45.426;9.206;2024-02-28T05:11:24;5.55;;;4.43;;
32393;SDS011;18853;45.426;9.206;2024-02-28T05:13:49;7.22;;;4.45;;
32393;SDS011;18853;45.426;9.206;2024-02-28T05:16:15;6.50;;;4.57;;
32393;SDS011;18853;45.426;9.206;2024-02-28T05:18:41;6.22;;;4.55;;
32393;SDS011;18853;45.426;9.206;2024-02-28T05:21:09;6.22;;;4.43;;
32393;SDS011;18853;45.426;9.206;2024-02-28T05:23:35;5.95;;;4.20;;
32393;SDS011;18853;45.426;9.206;2024-02-28T05:26:01;9.25;;;4.32;;
32393;SDS011;18853;45.426;9.206;2024-02-28T05:28:29;6.22;;;4.53;;
32393;SDS011;18853;45.426;9.206;2024-02-28T05:30:56;8.05;;;4.32;;
32393;SDS011;18853;45.426;9.206;2024-02-28T05:33:21;6.55;;;4.32;;
32393;SDS011;18853;45.426;9.206;2024-02-28T05:35:47;6.82;;;4.30;;
32393;SDS011;18853;45.426;9.206;2024-02-28T05:38:13;6.07;;;4.35;;
32393;SDS011;18853;45.426;9.206;2024-02-28T05:40:38;5.10;;;3.92;;
32393;SDS011;18853;45.426;9.206;2024-02-28T05:43:06;8.30;;;4.68;;
32393;SDS011;18853;45.426;9.206;2024-02-28T05:45:31;8.32;;;4.10;;
32393;SDS011;18853;45.426;9.206;2024-02-28T05:47:57;5.50;;;4.10;;
32393;SDS011;18853;45.426;9.206;2024-02-28T05:50:22;5.85;;;4.60;;
32393;SDS011;18853;45.426;9.206;2024-02-28T05:52:48;7.85;;;4.40;;
32393;SDS011;18853;45.426;9.206;2024-02-28T05:55:13;5.55;;;4.35;;
32393;SDS011;18853;45.426;9.206;2024-02-28T05:57:39;6.97;;;3.78;;
32393;SDS011;18853;45.426;9.206;2024-02-28T06:00:05;6.20;;;3.97;;
32393;SDS011;18853;45.426;9.206;2024-02-28T06:02:35;6.10;;;3.95;;
32393;SDS011;18853;45.426;9.206;2024-02-28T06:05:02;6.45;;;4.30;;
32393;SDS011;18853;45.426;9.206;2024-02-28T06:07:28;4.90;;;3.80;;
32393;SDS011;18853;45.426;9.206;2024-02-28T06:09:53;8.23;;;4.20;;
32393;SDS011;18853;45.426;9.206;2024-02-28T06:12:19;60.03;;;34.33;;
32393;SDS011;18853;45.426;9.206;2024-02-28T06:14:44;54.92;;;34.10;;
32393;SDS011;18853;45.426;9.206;2024-02-28T06:17:10;16.60;;;10.90;;
32393;SDS011;18853;45.426;9.206;2024-02-28T06:19:35;10.48;;;7.72;;
32393;SDS011;18853;45.426;9.206;2024-02-28T06:22:01;72.25;;;40.28;;
32393;SDS011;18853;45.426;9.206;2024-02-28T06:24:26;38.53;;;23.77;;
32393;SDS011;18853;45.426;9.206;2024-02-28T06:26:52;29.55;;;18.02;;
32393;SDS011;18853;45.426;9.206;2024-02-28T06:29:17;37.10;;;21.83;;
32393;SDS011;18853;45.426;9.206;2024-02-28T06:31:43;12.40;;;8.23;;
32393;SDS011;18853;45.426;9.206;2024-02-28T06:34:09;10.52;;;5.65;;
32393;SDS011;18853;45.426;9.206;2024-02-28T06:36:34;14.40;;;9.50;;
32393;SDS011;18853;45.426;9.206;2024-02-28T06:39:00;11.48;;;7.20;;
32393;SDS011;18853;45.426;9.206;2024-02-28T06:41:26;10.18;;;6.57;;
32393;SDS011;18853;45.426;9.206;2024-02-28T06:43:51;7.72;;;5.47;;
32393;SDS011;18853;45.426;9.206;2024-02-28T06:46:17;9.55;;;5.72;;
32393;SDS011;18853;45.426;9.206;2024-02-28T06:48:42;13.50;;;8.68;;
32393;SDS011;18853;45.426;9.206;2024-02-28T06:51:08;8.73;;;6.63;;
32393;SDS011;18853;45.426;9.206;2024-02-28T06:53:34;9.07;;;5.88;;
32393;SDS011;18853;45.426;9.206;2024-02-28T06:56:00;10.68;;;6.47;;
32393;SDS011;18853;45.426;9.206;2024-02-28T06:58:26;8.25;;;5.65;;
32393;SDS011;18853;45.426;9.206;2024-02-28T07:00:52;8.18;;;5.70;;
32393;SDS011;18853;45.426;9.206;2024-02-28T07:03:18;9.23;;;6.30;;
32393;SDS011;18853;45.426;9.206;2024-02-28T07:05:43;8.82;;;5.88;;
32393;SDS011;18853;45.426;9.206;2024-02-28T07:08:09;10.52;;;6.65;;
32393;SDS011;18853;45.426;9.206;2024-02-28T07:10:36;6.68;;;5.40;;
32393;SDS011;18853;45.426;9.206;2024-02-28T07:13:01;7.97;;;5.70;;
32393;SDS011;18853;45.426;9.206;2024-02-28T07:15:27;9.40;;;6.05;;
32393;SDS011;18853;45.426;9.206;2024-02-28T07:17:53;9.55;;;7.40;;
32393;SDS011;18853;45.426;9.206;2024-02-28T07:20:18;9.98;;;5.95;;
32393;SDS011;18853;45.426;9.206;2024-02-28T07:22:44;8.75;;;5.78;;
32393;SDS011;18853;45.426;9.206;2024-02-28T07:25:09;10.20;;;6.60;;
32393;SDS011;18853;45.426;9.206;2024-02-28T07:27:35;9.40;;;6.88;;
32393;SDS011;18853;45.426;9.206;2024-02-28T07:30:01;14.32;;;9.95;;
32393;SDS011;18853;45.426;9.206;2024-02-28T07:32:28;17.30;;;11.55;;
32393;SDS011;18853;45.426;9.206;2024-02-28T07:34:53;7.47;;;6.00;;
32393;SDS011;18853;45.426;9.206;2024-02-28T07:37:20;37.33;;;22.17;;
32393;SDS011;18853;45.426;9.206;2024-02-28T07:39:46;37.03;;;24.85;;
32393;SDS011;18853;45.426;9.206;2024-02-28T07:42:12;9.85;;;6.88;;
32393;SDS011;18853;45.426;9.206;2024-02-28T07:44:38;30.25;;;18.38;;
32393;SDS011;18853;45.426;9.206;2024-02-28T07:47:05;39.67;;;25.65;;
32393;SDS011;18853;45.426;9.206;2024-02-28T07:49:31;34.75;;;22.38;;
32393;SDS011;18853;45.426;9.206;2024-02-28T07:51:56;9.90;;;7.82;;
32393;SDS011;18853;45.426;9.206;2024-02-28T07:54:22;43.92;;;26.08;;
32393;SDS011;18853;45.426;9.206;2024-02-28T07:56:48;41.95;;;27.10;;
32393;SDS011;18853;45.426;9.206;2024-02-28T07:59:13;32.88;;;21.30;;
32393;SDS011;18853;45.426;9.206;2024-02-28T08:01:39;23.00;;;14.30;;
32393;SDS011;18853;45.426;9.206;2024-02-28T08:04:05;28.73;;;18.17;;
32393;SDS011;18853;45.426;9.206;2024-02-28T08:06:30;25.33;;;15.48;;
32393;SDS011;18853;45.426;9.206;2024-02-28T08:08:58;13.73;;;9.25;;
32393;SDS011;18853;45.426;9.206;2024-02-28T08:11:23;20.25;;;13.77;;
32393;SDS011;18853;45.426;9.206;2024-02-28T08:13:50;17.80;;;13.40;;
32393;SDS011;18853;45.426;9.206;2024-02-28T08:16:16;12.73;;;9.60;;
32393;SDS011;18853;45.426;9.206;2024-02-28T08:18:41;10.55;;;8.60;;
32393;SDS011;18853;45.426;9.206;2024-02-28T08:21:08;13.23;;;8.50;;
32393;SDS011;18853;45.426;9.206;2024-02-28T08:23:33;14.43;;;8.82;;
32393;SDS011;18853;45.426;9.206;2024-02-28T08:25:59;12.48;;;8.48;;
32393;SDS011;18853;45.426;9.206;2024-02-28T08:28:24;13.13;;;9.43;;
32393;SDS011;18853;45.426;9.206;2024-02-28T08:30:50;16.02;;;10.13;;
32393;SDS011;18853;45.426;9.206;2024-02-28T08:33:16;18.92;;;12.52;;
32393;SDS011;18853;45.426;9.206;2024-02-28T08:35:41;15.52;;;11.25;;
32393;SDS011;18853;45.426;9.206;2024-02-28T08:38:08;11.30;;;8.25;;
32393;SDS011;18853;45.426;9.206;2024-02-28T08:40:33;17.70;;;12.90;;
32393;SDS011;18853;45.426;9.206;2024-02-28T08:42:59;14.30;;;9.52;;
32393;SDS011;18853;45.426;9.206;2024-02-28T08:45:24;14.77;;;9.93;;
32393;SDS011;18853;45.426;9.206;2024-02-28T08:47:50;14.85;;;9.38;;
32393;SDS011;18853;45.426;9.206;2024-02-28T08:50:15;13.73;;;10.50;;
32393;SDS011;18853;45.426;9.206;2024-02-28T08:52:41;11.93;;;8.90;;
32393;SDS011;18853;45.426;9.206;2024-02-28T08:55:06;15.70;;;9.05;;
32393;SDS011;18853;45.426;9.206;2024-02-28T08:57:32;15.43;;;9.27;;
32393;SDS011;18853;45.426;9.206;2024-02-28T08:59:59;12.10;;;9.25;;
32393;SDS011;18853;45.426;9.206;2024-02-28T09:02:24;11.63;;;8.13;;
32393;SDS011;18853;45.426;9.206;2024-02-28T09:04:50;9.57;;;7.25;;
32393;SDS011;18853;45.426;9.206;2024-02-28T09:07:18;11.60;;;7.68;;
32393;SDS011;18853;45.426;9.206;2024-02-28T09:09:46;10.80;;;7.60;;
32393;SDS011;18853;45.426;9.206;2024-02-28T09:12:12;17.40;;;9.68;;
32393;SDS011;18853;45.426;9.206;2024-02-28T09:14:38;13.35;;;8.40;;
32393;SDS011;18853;45.426;9.206;2024-02-28T09:17:04;10.73;;;7.63;;
32393;SDS011;18853;45.426;9.206;2024-02-28T09:19:30;11.60;;;8.15;;
32393;SDS011;18853;45.426;9.206;2024-02-28T09:21:56;15.07;;;7.78;;
32393;SDS011;18853;45.426;9.206;2024-02-28T09:24:23;9.88;;;7.70;;
32393;SDS011;18853;45.426;9.206;2024-02-28T09:26:49;10.93;;;8.02;;
32393;SDS011;18853;45.426;9.206;2024-02-28T09:29:14;10.45;;;8.25;;
32393;SDS011;18853;45.426;9.206;2024-02-28T09:31:40;11.73;;;7.97;;
32393;SDS011;18853;45.426;9.206;2024-02-28T09:34:05;9.43;;;7.57;;
32393;SDS011;18853;45.426;9.206;2024-02-28T09:36:43;12.85;;;7.70;;
32393;SDS011;18853;45.426;9.206;2024-02-28T09:39:10;10.23;;;7.28;;
32393;SDS011;18853;45.426;9.206;2024-02-28T09:41:42;11.57;;;7.82;;
32393;SDS011;18853;45.426;9.206;2024-02-28T09:44:08;11.70;;;8.80;;
32393;SDS011;18853;45.426;9.206;2024-02-28T09:46:34;11.02;;;8.68;;
32393;SDS011;18853;45.426;9.206;2024-02-28T09:49:03;15.13;;;8.82;;
32393;SDS011;18853;45.426;9.206;2024-02-28T09:51:31;15.52;;;8.95;;
32393;SDS011;18853;45.426;9.206;2024-02-28T09:53:59;12.65;;;8.43;;
32393;SDS011;18853;45.426;9.206;2024-02-28T09:56:27;14.27;;;8.73;;
32393;SDS011;18853;45.426;9.206;2024-02-28T09:58:53;11.55;;;8.85;;
32393;SDS011;18853;45.426;9.206;2024-02-28T10:01:19;10.88;;;8.02;;
32393;SDS011;18853;45.426;9.206;2024-02-28T10:03:47;12.13;;;8.68;;
32393;SDS011;18853;45.426;9.206;2024-02-28T10:06:13;11.95;;;7.90;;
32393;SDS011;18853;45.426;9.206;2024-02-28T10:08:40;10.93;;;8.77;;
32393;SDS011;18853;45.426;9.206;2024-02-28T10:11:06;13.93;;;8.70;;
32393;SDS011;18853;45.426;9.206;2024-02-28T10:13:32;14.23;;;8.25;;
32393;SDS011;18853;45.426;9.206;2024-02-28T10:15:58;11.60;;;7.70;;
32393;SDS011;18853;45.426;9.206;2024-02-28T10:18:25;11.90;;;7.25;;
32393;SDS011;18853;45.426;9.206;2024-02-28T10:20:51;10.52;;;8.30;;
32393;SDS011;18853;45.426;9.206;2024-02-28T10:23:16;9.60;;;7.97;;
32393;SDS011;18853;45.426;9.206;2024-02-28T10:25:45;10.43;;;7.63;;
32393;SDS011;18853;45.426;9.206;2024-02-28T10:28:12;10.43;;;8.60;;
32393;SDS011;18853;45.426;9.206;2024-02-28T10:30:42;10.73;;;8.30;;
32393;SDS011;18853;45.426;9.206;2024-02-28T10:33:12;13.38;;;8.45;;
32393;SDS011;18853;45.426;9.206;2024-02-28T10:35:39;11.73;;;8.93;;
32393;SDS011;18853;45.426;9.206;2024-02-28T10:38:05;11.05;;;9.02;;
32393;SDS011;18853;45.426;9.206;2024-02-28T10:40:31;11.50;;;8.50;;
32393;SDS011;18853;45.426;9.206;2024-02-28T10:42:57;17.25;;;8.70;;
32393;SDS011;18853;45.426;9.206;2024-02-28T10:45:24;10.68;;;8.73;;
32393;SDS011;18853;45.426;9.206;2024-02-28T10:47:54;12.68;;;8.85;;
32393;SDS011;18853;45.426;9.206;2024-02-28T10:50:20;12.85;;;8.80;;
32393;SDS011;18853;45.426;9.206;2024-02-28T10:52:46;10.93;;;8.30;;
32393;SDS011;18853;45.426;9.206;2024-02-28T10:55:17;10.98;;;8.23;;
32393;SDS011;18853;45.426;9.206;2024-02-28T10:57:50;13.30;;;8.60;;
32393;SDS011;18853;45.426;9.206;2024-02-28T11:00:24;10.10;;;7.85;;
32393;SDS011;18853;45.426;9.206;2024-02-28T11:02:49;11.23;;;8.20;;
32393;SDS011;18853;45.426;9.206;2024-02-28T11:05:15;14.23;;;9.10;;
32393;SDS011;18853;45.426;9.206;2024-02-28T11:07:44;11.77;;;8.25;;
32393;SDS011;18853;45.426;9.206;2024-02-28T11:10:09;13.35;;;8.38;;
32393;SDS011;18853;45.426;9.206;2024-02-28T11:12:37;11.80;;;10.60;;
32393;SDS011;18853;45.426;9.206;2024-02-28T11:15:04;13.98;;;11.57;;
32393;SDS011;18853;45.426;9.206;2024-02-28T11:17:31;16.17;;;11.63;;
32393;SDS011;18853;45.426;9.206;2024-02-28T11:19:57;15.00;;;11.02;;
32393;SDS011;18853;45.426;9.206;2024-02-28T11:22:24;15.50;;;11.75;;
32393;SDS011;18853;45.426;9.206;2024-02-28T11:24:56;14.98;;;10.90;;
32393;SDS011;18853;45.426;9.206;2024-02-28T11:27:21;13.73;;;11.70;;
32393;SDS011;18853;45.426;9.206;2024-02-28T11:29:47;17.92;;;12.63;;
32393;SDS011;18853;45.426;9.206;2024-02-28T11:32:14;14.40;;;12.18;;
32393;SDS011;18853;45.426;9.206;2024-02-28T11:34:41;14.73;;;12.23;;
32393;SDS011;18853;45.426;9.206;2024-02-28T11:37:08;14.13;;;12.07;;
32393;SDS011;18853;45.426;9.206;2024-02-28T11:39:34;14.32;;;12.13;;
32393;SDS011;18853;45.426;9.206;2024-02-28T11:42:11;14.65;;;12.40;;
32393;SDS011;18853;45.426;9.206;2024-02-28T11:44:38;15.63;;;13.10;;
32393;SDS011;18853;45.426;9.206;2024-02-28T11:47:04;14.90;;;12.38;;
32393;SDS011;18853;45.426;9.206;2024-02-28T11:49:32;13.82;;;12.20;;
32393;SDS011;18853;45.426;9.206;2024-02-28T11:51:58;16.23;;;12.25;;
32393;SDS011;18853;45.426;9.206;2024-02-28T11:54:24;19.88;;;14.00;;
32393;SDS011;18853;45.426;9.206;2024-02-28T11:56:49;16.63;;;13.25;;
32393;SDS011;18853;45.426;9.206;2024-02-28T11:59:16;15.02;;;12.35;;
32393;SDS011;18853;45.426;9.206;2024-02-28T12:01:42;16.02;;;12.70;;
32393;SDS011;18853;45.426;9.206;2024-02-28T12:04:11;16.00;;;12.30;;
32393;SDS011;18853;45.426;9.206;2024-02-28T12:06:38;17.80;;;12.80;;
32393;SDS011;18853;45.426;9.206;2024-02-28T12:09:05;14.80;;;12.93;;
32393;SDS011;18853;45.426;9.206;2024-02-28T12:11:33;14.60;;;12.38;;
32393;SDS011;18853;45.426;9.206;2024-02-28T12:14:02;16.63;;;13.07;;
32393;SDS011;18853;45.426;9.206;2024-02-28T12:16:34;16.65;;;12.85;;
32393;SDS011;18853;45.426;9.206;2024-02-28T12:19:07;16.10;;;12.88;;
32393;SDS011;18853;45.426;9.206;2024-02-28T12:21:34;16.33;;;13.07;;
32393;SDS011;18853;45.426;9.206;2024-02-28T12:24:01;16.13;;;12.15;;
32393;SDS011;18853;45.426;9.206;2024-02-28T12:26:27;13.40;;;10.82;;
32393;SDS011;18853;45.426;9.206;2024-02-28T12:28:52;13.27;;;11.43;;
32393;SDS011;18853;45.426;9.206;2024-02-28T12:31:18;13.43;;;11.25;;
32393;SDS011;18853;45.426;9.206;2024-02-28T12:33:44;13.68;;;11.60;;
32393;SDS011;18853;45.426;9.206;2024-02-28T12:36:09;13.27;;;10.65;;
32393;SDS011;18853;45.426;9.206;2024-02-28T12:38:35;13.50;;;10.05;;
32393;SDS011;18853;45.426;9.206;2024-02-28T12:41:01;12.27;;;9.13;;
32393;SDS011;18853;45.426;9.206;2024-02-28T12:43:30;10.20;;;8.02;;
32393;SDS011;18853;45.426;9.206;2024-02-28T12:45:57;10.95;;;8.30;;
32393;SDS011;18853;45.426;9.206;2024-02-28T12:48:23;10.07;;;8.10;;
32393;SDS011;18853;45.426;9.206;2024-02-28T12:50:48;9.10;;;7.25;;
32393;SDS011;18853;45.426;9.206;2024-02-28T12:53:14;10.93;;;7.40;;
32393;SDS011;18853;45.426;9.206;2024-02-28T12:55:40;10.25;;;7.45;;
32393;SDS011;18853;45.426;9.206;2024-02-28T12:58:06;9.07;;;7.20;;
32393;SDS011;18853;45.426;9.206;2024-02-28T13:00:32;9.23;;;6.65;;
32393;SDS011;18853;45.426;9.206;2024-02-28T13:02:58;9.18;;;6.97;;
32393;SDS011;18853;45.426;9.206;2024-02-28T13:05:23;7.63;;;5.82;;
32393;SDS011;18853;45.426;9.206;2024-02-28T13:07:50;10.20;;;6.00;;
32393;SDS011;18853;45.426;9.206;2024-02-28T13:10:17;8.77;;;6.45;;
32393;SDS011;18853;45.426;9.206;2024-02-28T13:12:43;10.82;;;6.35;;
32393;SDS011;18853;45.426;9.206;2024-02-28T13:15:09;10.70;;;5.50;;
32393;SDS011;18853;45.426;9.206;2024-02-28T13:17:34;9.18;;;6.10;;
32393;SDS011;18853;45.426;9.206;2024-02-28T13:20:00;10.02;;;7.82;;
32393;SDS011;18853;45.426;9.206;2024-02-28T13:22:25;11.57;;;7.50;;
32393;SDS011;18853;45.426;9.206;2024-02-28T13:24:51;9.40;;;8.25;;
32393;SDS011;18853;45.426;9.206;2024-02-28T13:27:16;11.60;;;8.15;;
32393;SDS011;18853;45.426;9.206;2024-02-28T13:29:42;12.07;;;7.95;;
32393;SDS011;18853;45.426;9.206;2024-02-28T13:32:07;12.88;;;8.50;;
32393;SDS011;18853;45.426;9.206;2024-02-28T13:34:33;9.93;;;8.00;;
32393;SDS011;18853;45.426;9.206;2024-02-28T13:36:59;13.20;;;7.35;;
32393;SDS011;18853;45.426;9.206;2024-02-28T13:39:24;12.60;;;7.85;;
32393;SDS011;18853;45.426;9.206;2024-02-28T13:41:51;12.95;;;8.35;;
32393;SDS011;18853;45.426;9.206;2024-02-28T13:44:17;10.10;;;7.55;;
32393;SDS011;18853;45.426;9.206;2024-02-28T13:46:46;11.25;;;7.85;;
32393;SDS011;18853;45.426;9.206;2024-02-28T13:49:12;9.65;;;7.45;;
32393;SDS011;18853;45.426;9.206;2024-02-28T13:51:39;11.35;;;8.73;;
32393;SDS011;18853;45.426;9.206;2024-02-28T13:54:04;13.07;;;9.65;;
32393;SDS011;18853;45.426;9.206;2024-02-28T13:56:30;13.27;;;8.77;;
32393;SDS011;18853;45.426;9.206;2024-02-28T13:58:56;13.85;;;8.52;;
32393;SDS011;18853;45.426;9.206;2024-02-28T14:01:22;11.82;;;8.80;;
32393;SDS011;18853;45.426;9.206;2024-02-28T14:03:48;13.23;;;8.52;;
32393;SDS011;18853;45.426;9.206;2024-02-28T14:06:13;10.25;;;7.90;;
32393;SDS011;18853;45.426;9.206;2024-02-28T14:08:39;11.82;;;9.32;;
32393;SDS011;18853;45.426;9.206;2024-02-28T14:11:05;14.15;;;9.20;;
32393;SDS011;18853;45.426;9.206;2024-02-28T14:13:30;14.80;;;9.25;;
32393;SDS011;18853;45.426;9.206;2024-02-28T14:15:56;10.75;;;8.50;;
32393;SDS011;18853;45.426;9.206;2024-02-28T14:18:23;10.93;;;8.40;;
32393;SDS011;18853;45.426;9.206;2024-02-28T14:20:48;12.98;;;8.73;;
32393;SDS011;18853;45.426;9.206;2024-02-28T14:23:14;9.55;;;7.75;;
32393;SDS011;18853;45.426;9.206;2024-02-28T14:25:39;11.32;;;7.95;;
32393;SDS011;18853;45.426;9.206;2024-02-28T14:28:06;11.25;;;8.00;;
32393;SDS011;18853;45.426;9.206;2024-02-28T14:30:32;9.52;;;7.00;;